createdAt,value
2018-04-30T00:01:09.783Z,99014
2018-04-30T00:03:39.411Z,99005
2018-04-30T00:06:08.269Z,98994
2018-04-30T00:08:36.366Z,98972
2018-04-30T00:11:04.627Z,98966
2018-04-30T00:13:33.707Z,98967
2018-04-30T00:16:04.755Z,98958
2018-04-30T00:18:32.988Z,98956
2018-04-30T00:21:01.080Z,98955
2018-04-30T00:23:30.223Z,98962
2018-04-30T00:25:58.541Z,98958
2018-04-30T00:28:26.619Z,98950
2018-04-30T00:30:54.724Z,98934
2018-04-30T00:33:23.588Z,98929
2018-04-30T00:35:51.890Z,98929
2018-04-30T00:38:20.768Z,98930
2018-04-30T00:40:48.857Z,98933
2018-04-30T00:43:17.707Z,98921
2018-04-30T00:45:45.824Z,98928
2018-04-30T00:48:17.153Z,98930
2018-04-30T00:50:45.461Z,98920
2018-04-30T00:53:15.594Z,98923
2018-04-30T00:55:44.264Z,98918
2018-04-30T00:58:12.727Z,98927
2018-04-30T01:00:40.855Z,98959
2018-04-30T01:03:09.302Z,98968
2018-04-30T01:05:40.018Z,98976
2018-04-30T01:08:08.143Z,98997
2018-04-30T01:10:36.392Z,99018
2018-04-30T01:13:04.499Z,99011
2018-04-30T01:15:34.182Z,98974
2018-04-30T01:18:02.294Z,98936
2018-04-30T01:20:31.527Z,98930
2018-04-30T01:22:59.653Z,98943
2018-04-30T01:25:27.756Z,98945
2018-04-30T01:27:55.844Z,98923
2018-04-30T01:30:23.956Z,98925
2018-04-30T01:32:52.044Z,98931
2018-04-30T01:35:20.119Z,98933
2018-04-30T01:37:48.312Z,98916
2018-04-30T01:40:17.056Z,98930
2018-04-30T01:42:45.435Z,98927
2018-04-30T01:45:14.232Z,98933
2018-04-30T01:47:43.028Z,98941
2018-04-30T01:50:11.409Z,98933
2018-04-30T01:52:40.134Z,98935
2018-04-30T01:55:09.080Z,98937
2018-04-30T01:57:38.148Z,98929
2018-04-30T02:00:06.230Z,98929
2018-04-30T02:02:34.505Z,98941
2018-04-30T02:05:02.900Z,98928
2018-04-30T02:07:30.984Z,98947
2018-04-30T02:09:59.986Z,98944
2018-04-30T02:12:28.085Z,98940
2018-04-30T02:14:56.264Z,98937
2018-04-30T02:17:25.128Z,98922
2018-04-30T02:19:53.976Z,98924
2018-04-30T02:22:22.073Z,98932
2018-04-30T02:24:50.157Z,98923
2018-04-30T02:27:18.464Z,98915
2018-04-30T02:29:46.584Z,98917
2018-04-30T02:32:15.374Z,98921
2018-04-30T02:34:43.460Z,98918
2018-04-30T02:37:11.552Z,98920
2018-04-30T02:39:39.711Z,98915
2018-04-30T02:42:07.780Z,98912
2018-04-30T02:44:35.869Z,98899
2018-04-30T02:47:03.952Z,98895
2018-04-30T02:49:32.044Z,98894
2018-04-30T02:52:01.035Z,98904
2018-04-30T02:54:29.961Z,98901
2018-04-30T02:56:58.239Z,98898
2018-04-30T02:59:26.561Z,98903
2018-04-30T03:01:54.636Z,98900
2018-04-30T03:04:22.699Z,98897
2018-04-30T03:06:50.806Z,98922
2018-04-30T03:09:18.888Z,98934
2018-04-30T03:11:47.091Z,98930
2018-04-30T03:14:15.193Z,98931
2018-04-30T03:16:43.966Z,98939
2018-04-30T03:19:12.045Z,98945
2018-04-30T03:21:40.243Z,98939
2018-04-30T03:24:09.097Z,98945
2018-04-30T03:26:37.179Z,98951
2018-04-30T03:29:05.265Z,98953
2018-04-30T03:31:35.400Z,98957
2018-04-30T03:34:04.471Z,98967
2018-04-30T03:36:33.284Z,98959
2018-04-30T03:39:02.395Z,98965
2018-04-30T03:41:30.565Z,98961
2018-04-30T03:43:59.642Z,98959
2018-04-30T03:46:27.745Z,98959
2018-04-30T03:48:55.824Z,98970
2018-04-30T03:51:24.151Z,98974
2018-04-30T03:53:52.224Z,98976
2018-04-30T03:56:20.300Z,98972
2018-04-30T03:58:48.734Z,98963
2018-04-30T04:01:34.608Z,98968
2018-04-30T04:04:22.496Z,98978
2018-04-30T04:06:53.461Z,98984
2018-04-30T04:09:23.427Z,98978
2018-04-30T04:11:51.720Z,98982
2018-04-30T04:14:19.815Z,98985
2018-04-30T04:16:48.656Z,98992
2018-04-30T04:19:17.027Z,98996
2018-04-30T04:21:45.272Z,98997
2018-04-30T04:24:13.492Z,99009
2018-04-30T04:26:41.696Z,99016
2018-04-30T04:29:09.980Z,99022
2018-04-30T04:31:38.079Z,99021
2018-04-30T04:34:06.162Z,99016
2018-04-30T04:36:34.247Z,99013
2018-04-30T04:39:02.530Z,99008
2018-04-30T04:41:30.636Z,99021
2018-04-30T04:43:58.715Z,99029
2018-04-30T04:46:26.783Z,99022
2018-04-30T04:48:54.884Z,99014
2018-04-30T04:51:23.224Z,99033
2018-04-30T04:53:51.452Z,99050
2018-04-30T04:56:19.745Z,99041
2018-04-30T04:58:48.059Z,99060
2018-04-30T05:01:16.404Z,99055
2018-04-30T05:03:46.235Z,99043
2018-04-30T05:06:18.372Z,99058
2018-04-30T05:08:46.728Z,99059
2018-04-30T05:11:15.221Z,99064
2018-04-30T05:13:43.486Z,99081
2018-04-30T05:16:12.327Z,99077
2018-04-30T05:18:40.431Z,99087
2018-04-30T05:21:08.573Z,99084
2018-04-30T05:23:36.791Z,99079
2018-04-30T05:26:05.868Z,99085
2018-04-30T05:28:34.243Z,99086
2018-04-30T05:31:02.311Z,99084
2018-04-30T05:33:30.725Z,99093
2018-04-30T05:35:59.568Z,99110
2018-04-30T05:38:27.739Z,99100
2018-04-30T05:40:55.856Z,99093
2018-04-30T05:43:24.692Z,99099
2018-04-30T05:45:52.756Z,99107
2018-04-30T05:48:20.865Z,99110
2018-04-30T05:50:49.116Z,99105
2018-04-30T05:53:17.196Z,99108
2018-04-30T05:55:45.276Z,99118
2018-04-30T05:58:13.372Z,99112
2018-04-30T06:00:41.452Z,99107
2018-04-30T06:03:10.377Z,99109
2018-04-30T06:05:39.303Z,99106
2018-04-30T06:08:07.404Z,99110
2018-04-30T06:10:35.634Z,99100
2018-04-30T06:13:04.024Z,99112
2018-04-30T06:15:33.815Z,99120
2018-04-30T06:18:02.927Z,99136
2018-04-30T06:20:32.563Z,99146
2018-04-30T06:23:01.344Z,99133
2018-04-30T06:25:29.668Z,99147
2018-04-30T06:27:58.573Z,99151
2018-04-30T06:30:27.400Z,99155
2018-04-30T06:32:56.500Z,99152
2018-04-30T06:35:26.399Z,99157
2018-04-30T06:37:55.164Z,99155
2018-04-30T06:40:24.079Z,99152
2018-04-30T06:42:52.852Z,99142
2018-04-30T06:45:21.179Z,99144
2018-04-30T06:47:49.271Z,99156
2018-04-30T06:50:18.209Z,99149
2018-04-30T06:52:46.431Z,99159
2018-04-30T06:55:14.732Z,99152
2018-04-30T06:57:42.831Z,99163
2018-04-30T07:00:10.979Z,99160
2018-04-30T07:02:39.266Z,99153
2018-04-30T07:05:08.084Z,99154
2018-04-30T07:07:37.076Z,99155
2018-04-30T07:10:05.345Z,99149
2018-04-30T07:12:37.351Z,99167
2018-04-30T07:15:06.398Z,99175
2018-04-30T07:17:34.532Z,99169
2018-04-30T07:20:03.459Z,99179
2018-04-30T07:22:35.007Z,99174
2018-04-30T07:25:03.338Z,99174
2018-04-30T07:27:32.242Z,99180
2018-04-30T07:30:01.029Z,99182
2018-04-30T07:32:30.571Z,99189
2018-04-30T07:34:59.395Z,99180
2018-04-30T07:37:28.387Z,99191
2018-04-30T07:39:57.466Z,99186
2018-04-30T07:42:26.232Z,99192
2018-04-30T07:44:56.239Z,99191
2018-04-30T07:47:24.440Z,99201
2018-04-30T07:49:53.213Z,99210
2018-04-30T07:52:21.627Z,99203
2018-04-30T07:54:50.339Z,99199
2018-04-30T07:57:21.018Z,99204
2018-04-30T07:59:49.917Z,99207
2018-04-30T08:02:18.300Z,99206
2018-04-30T08:04:46.391Z,99193
2018-04-30T08:07:14.467Z,99203
2018-04-30T08:09:42.577Z,99214
2018-04-30T08:12:11.484Z,99217
2018-04-30T08:14:39.816Z,99220
2018-04-30T08:17:08.187Z,99225
2018-04-30T08:19:37.147Z,99216
2018-04-30T08:22:05.436Z,99215
2018-04-30T08:24:33.536Z,99219
2018-04-30T08:27:01.652Z,99224
2018-04-30T08:29:30.041Z,99216
2018-04-30T08:31:58.267Z,99236
2018-04-30T08:34:26.350Z,99243
2018-04-30T08:36:54.660Z,99249
2018-04-30T08:39:23.692Z,99247
2018-04-30T08:41:51.755Z,99212
2018-04-30T08:44:20.515Z,99237
2018-04-30T08:46:48.766Z,99249
2018-04-30T08:49:17.809Z,99257
2018-04-30T08:51:45.876Z,99262
2018-04-30T08:54:14.288Z,99265
2018-04-30T08:56:42.645Z,99250
2018-04-30T08:59:11.419Z,99257
2018-04-30T09:01:40.200Z,99267
2018-04-30T09:04:08.320Z,99266
2018-04-30T09:06:37.222Z,99266
2018-04-30T09:09:06.159Z,99263
2018-04-30T09:11:35.009Z,99258
2018-04-30T09:14:04.092Z,99266
2018-04-30T09:16:32.993Z,99257
2018-04-30T09:19:01.077Z,99265
2018-04-30T09:21:30.045Z,99267
2018-04-30T09:23:59.236Z,99274
2018-04-30T09:26:27.328Z,99267
2018-04-30T09:28:55.414Z,99268
2018-04-30T09:31:23.713Z,99261
2018-04-30T09:33:51.811Z,99274
2018-04-30T09:36:20.567Z,99268
2018-04-30T09:38:49.465Z,99265
2018-04-30T09:41:17.563Z,99269
2018-04-30T09:43:45.919Z,99269
2018-04-30T09:46:14.228Z,99261
2018-04-30T09:48:42.451Z,99262
2018-04-30T09:51:10.812Z,99263
2018-04-30T09:53:38.917Z,99276
2018-04-30T09:56:07.028Z,99270
2018-04-30T09:58:35.216Z,99273
2018-04-30T10:01:04.303Z,99267
2018-04-30T10:03:32.455Z,99286
2018-04-30T10:06:04.145Z,99281
2018-04-30T10:08:33.240Z,99267
2018-04-30T10:11:02.274Z,99278
2018-04-30T10:13:30.353Z,99283
2018-04-30T10:15:58.483Z,99270
2018-04-30T10:18:26.900Z,99261
2018-04-30T10:20:55.012Z,99268
2018-04-30T10:23:24.340Z,99266
2018-04-30T10:25:52.863Z,99270
2018-04-30T10:28:20.935Z,99271
2018-04-30T10:30:49.015Z,99262
2018-04-30T10:33:21.117Z,99241
2018-04-30T10:35:49.216Z,99259
2018-04-30T10:38:17.429Z,99250
2018-04-30T10:40:45.707Z,99248
2018-04-30T10:43:13.821Z,99253
2018-04-30T10:45:42.688Z,99248
2018-04-30T10:48:11.057Z,99240
2018-04-30T10:50:39.801Z,99251
2018-04-30T10:53:08.086Z,99250
2018-04-30T10:55:36.409Z,99255
2018-04-30T10:58:05.679Z,99250
2018-04-30T11:00:34.461Z,99243
2018-04-30T11:03:02.537Z,99254
2018-04-30T11:05:30.628Z,99243
2018-04-30T11:07:58.979Z,99248
2018-04-30T11:10:27.878Z,99246
2018-04-30T11:12:56.219Z,99236
2018-04-30T11:15:25.869Z,99248
2018-04-30T11:17:54.219Z,99247
2018-04-30T11:20:23.035Z,99250
2018-04-30T11:22:54.998Z,99242
2018-04-30T11:25:23.596Z,99247
2018-04-30T11:27:51.740Z,99239
2018-04-30T11:30:19.829Z,99249
2018-04-30T11:32:51.000Z,99245
2018-04-30T11:35:19.340Z,99237
2018-04-30T11:37:48.167Z,99238
2018-04-30T11:40:16.974Z,99236
2018-04-30T11:42:45.846Z,99225
2018-04-30T11:45:16.564Z,99239
2018-04-30T11:47:45.494Z,99240
2018-04-30T11:50:15.262Z,99231
2018-04-30T11:52:44.703Z,99241
2018-04-30T11:55:12.929Z,99235
2018-04-30T11:57:41.028Z,99239
2018-04-30T12:00:10.812Z,99238
2018-04-30T12:02:40.253Z,99249
2018-04-30T12:05:08.688Z,99252
2018-04-30T12:07:37.532Z,99263
2018-04-30T12:10:05.828Z,99277
2018-04-30T12:12:34.138Z,99276
2018-04-30T12:15:02.944Z,99293
2018-04-30T12:17:33.355Z,99306
2018-04-30T12:20:01.684Z,99315
2018-04-30T12:22:31.140Z,99316
2018-04-30T12:24:59.425Z,99327
2018-04-30T12:27:27.964Z,99319
2018-04-30T12:29:57.575Z,99315
2018-04-30T12:32:25.860Z,99312
2018-04-30T12:34:54.683Z,99311
2018-04-30T12:37:23.230Z,99323
2018-04-30T12:39:53.120Z,99351
2018-04-30T12:42:21.877Z,99356
2018-04-30T12:44:51.569Z,99343
2018-04-30T12:47:21.410Z,99369
2018-04-30T12:49:50.349Z,99365
2018-04-30T12:52:19.467Z,99375
2018-04-30T12:54:49.510Z,99366
2018-04-30T12:57:17.682Z,99372
2018-04-30T12:59:46.349Z,99377
2018-04-30T13:02:14.559Z,99380
2018-04-30T13:04:43.740Z,99361
2018-04-30T13:07:11.832Z,99348
2018-04-30T13:09:40.724Z,99353
2018-04-30T13:12:09.480Z,99356
2018-04-30T13:14:37.888Z,99359
2018-04-30T13:17:06.745Z,99359
2018-04-30T13:19:35.727Z,99364
2018-04-30T13:22:05.865Z,99358
2018-04-30T13:24:34.236Z,99372
2018-04-30T13:27:02.768Z,99356
2018-04-30T13:29:31.515Z,99355
2018-04-30T13:32:00.312Z,99358
2018-04-30T13:34:28.548Z,99355
2018-04-30T13:36:58.296Z,99354
2018-04-30T13:39:27.084Z,99375
2018-04-30T13:41:55.379Z,99375
2018-04-30T13:44:23.660Z,99375
2018-04-30T13:46:51.730Z,99365
2018-04-30T13:49:19.872Z,99363
2018-04-30T13:51:47.951Z,99373
2018-04-30T13:54:16.880Z,99375
2018-04-30T13:56:45.407Z,99383
2018-04-30T13:59:14.436Z,99388
2018-04-30T14:01:44.094Z,99389
2018-04-30T14:04:12.231Z,99382
2018-04-30T14:06:40.715Z,99386
2018-04-30T14:09:10.603Z,99388
2018-04-30T14:11:38.935Z,99401
2018-04-30T14:14:07.951Z,99398
2018-04-30T14:16:36.039Z,99400
2018-04-30T14:19:04.413Z,99387
2018-04-30T14:21:35.713Z,99396
2018-04-30T14:24:04.183Z,99402
2018-04-30T14:26:32.500Z,99407
2018-04-30T14:29:00.584Z,99416
2018-04-30T14:31:28.895Z,99404
2018-04-30T14:33:57.988Z,99401
2018-04-30T14:36:26.312Z,99403
2018-04-30T14:38:54.440Z,99393
2018-04-30T14:41:22.684Z,99402
2018-04-30T14:43:51.483Z,99407
2018-04-30T14:46:20.269Z,99410
2018-04-30T14:48:49.852Z,99402
2018-04-30T14:51:18.289Z,99407
2018-04-30T14:53:48.381Z,99409
2018-04-30T14:56:17.424Z,99405
2018-04-30T14:58:48.249Z,99409
2018-04-30T15:01:17.158Z,99399
2018-04-30T15:03:46.011Z,99401
2018-04-30T15:06:14.092Z,99391
2018-04-30T15:08:42.876Z,99399
2018-04-30T15:11:11.325Z,99391
2018-04-30T15:13:40.844Z,99387
2018-04-30T15:16:09.637Z,99377
2018-04-30T15:18:37.992Z,99398
2018-04-30T15:21:06.071Z,99382
2018-04-30T15:23:34.675Z,99376
2018-04-30T15:26:03.724Z,99380
2018-04-30T15:28:32.003Z,99369
2018-04-30T15:31:01.284Z,99373
2018-04-30T15:33:30.210Z,99375
2018-04-30T15:35:58.316Z,99381
2018-04-30T15:38:26.552Z,99378
2018-04-30T15:40:55.643Z,99386
2018-04-30T15:43:23.726Z,99384
2018-04-30T15:45:51.809Z,99394
2018-04-30T15:48:21.105Z,99406
2018-04-30T15:50:49.219Z,99385
2018-04-30T15:53:18.085Z,99382
2018-04-30T15:55:46.233Z,99388
2018-04-30T15:58:14.993Z,99378
2018-04-30T16:00:44.209Z,99375
2018-04-30T16:03:12.501Z,99371
2018-04-30T16:05:40.595Z,99387
2018-04-30T16:08:08.679Z,99369
2018-04-30T16:10:36.756Z,99370
2018-04-30T16:13:04.946Z,99362
2018-04-30T16:15:33.811Z,99371
2018-04-30T16:18:03.922Z,99361
2018-04-30T16:20:33.049Z,99357
2018-04-30T16:23:04.771Z,99353
2018-04-30T16:25:33.782Z,99344
2018-04-30T16:28:03.936Z,99346
2018-04-30T16:30:37.393Z,99360
2018-04-30T16:33:07.976Z,99366
2018-04-30T16:35:38.688Z,99369
2018-04-30T16:38:07.781Z,99357
2018-04-30T16:40:37.756Z,99365
2018-04-30T16:45:44.310Z,99347
2018-04-30T16:48:15.893Z,99340
2018-04-30T16:50:48.635Z,99351
2018-04-30T16:53:17.395Z,99353
2018-04-30T16:55:47.348Z,99354
2018-04-30T16:58:21.419Z,99345
2018-04-30T17:00:53.012Z,99342
2018-04-30T17:03:25.482Z,99336
2018-04-30T17:05:56.075Z,99332
2018-04-30T17:08:24.762Z,99333
2018-04-30T17:10:55.977Z,99345
2018-04-30T17:13:27.373Z,99364
2018-04-30T17:15:57.840Z,99347
2018-04-30T17:18:28.892Z,99334
2018-04-30T17:21:06.416Z,99336
2018-04-30T17:23:42.844Z,99342
2018-04-30T17:26:16.153Z,99318
2018-04-30T17:28:45.872Z,99334
2018-04-30T17:31:15.727Z,99348
2018-04-30T17:33:47.536Z,99334
2018-04-30T17:36:21.897Z,99337
2018-04-30T17:38:54.664Z,99356
2018-04-30T17:41:26.732Z,99342
2018-04-30T17:44:02.895Z,99360
2018-04-30T17:46:32.010Z,99346
2018-04-30T17:49:05.348Z,99346
2018-04-30T17:51:35.671Z,99343
2018-04-30T17:54:05.641Z,99346
2018-04-30T17:56:33.957Z,99349
2018-04-30T17:59:06.396Z,99328
2018-04-30T18:01:43.923Z,99333
2018-04-30T18:04:14.495Z,99337
2018-04-30T18:06:43.614Z,99321
2018-04-30T18:09:17.641Z,99329
2018-04-30T18:11:50.531Z,99352
2018-04-30T18:17:20.032Z,99336
2018-04-30T18:19:55.903Z,99329
2018-04-30T18:22:28.690Z,99334
2018-04-30T18:25:03.224Z,99321
2018-04-30T18:27:36.092Z,99335
2018-04-30T18:30:08.396Z,99334
2018-04-30T18:32:48.270Z,99332
2018-04-30T18:35:19.393Z,99330
2018-04-30T18:37:52.985Z,99334
2018-04-30T18:40:29.417Z,99316
2018-04-30T18:43:00.033Z,99319
2018-04-30T18:45:33.684Z,99351
2018-04-30T18:48:23.518Z,99339
2018-04-30T18:53:44.983Z,99330
2018-04-30T18:56:16.799Z,99344
2018-04-30T18:58:57.926Z,99344
2018-04-30T19:01:29.092Z,99348
2018-04-30T19:07:12.223Z,99378
2018-04-30T19:09:50.517Z,99383
2018-04-30T19:12:23.293Z,99375
2018-04-30T19:14:54.996Z,99373
2018-04-30T19:17:43.453Z,99385
2018-04-30T19:20:13.994Z,99384
2018-04-30T19:22:42.071Z,99376
2018-04-30T19:25:11.603Z,99375
2018-04-30T19:27:41.808Z,99389
2018-04-30T19:30:09.906Z,99391
2018-04-30T19:32:45.545Z,99396
2018-04-30T19:35:21.426Z,99391
2018-04-30T19:37:51.198Z,99382
2018-04-30T19:40:22.356Z,99402
2018-04-30T19:42:52.427Z,99393
2018-04-30T19:45:20.674Z,99404
2018-04-30T19:47:57.259Z,99400
2018-04-30T19:50:27.073Z,99392
2018-04-30T19:52:56.130Z,99401
2018-04-30T19:55:26.984Z,99406
2018-04-30T19:57:59.603Z,99400
2018-04-30T20:00:37.442Z,99398
2018-04-30T20:03:12.084Z,99383
2018-04-30T20:05:41.789Z,99387
2018-04-30T20:08:10.555Z,99396
2018-04-30T20:10:46.626Z,99406
2018-04-30T20:13:14.723Z,99395
2018-04-30T20:15:45.136Z,99397
2018-04-30T20:18:18.792Z,99409
2018-04-30T20:20:48.533Z,99421
2018-04-30T20:23:18.556Z,99409
2018-04-30T20:25:49.098Z,99426
2018-04-30T20:28:40.630Z,99406
2018-04-30T20:31:13.836Z,99432
2018-04-30T20:33:46.213Z,99425
2018-04-30T20:36:16.757Z,99434
2018-04-30T20:38:47.778Z,99436
2018-04-30T20:41:15.901Z,99438
2018-04-30T20:43:45.529Z,99430
2018-04-30T20:46:22.752Z,99449
2018-04-30T20:49:15.152Z,99439
2018-04-30T20:51:44.131Z,99436
2018-04-30T20:54:13.206Z,99444
2018-04-30T20:56:46.710Z,99455
2018-04-30T21:01:50.629Z,99454
2018-04-30T21:04:20.408Z,99459
2018-04-30T21:06:51.892Z,99455
2018-04-30T21:09:21.320Z,99460
2018-04-30T21:11:52.120Z,99465
2018-04-30T21:14:20.298Z,99484
2018-04-30T21:16:49.572Z,99496
2018-04-30T21:19:18.447Z,99476
2018-04-30T21:21:47.141Z,99487
2018-04-30T21:24:16.159Z,99490
2018-04-30T21:26:47.130Z,99501
2018-04-30T21:29:15.220Z,99481
2018-04-30T21:31:45.627Z,99497
2018-04-30T21:34:15.019Z,99490
2018-04-30T21:36:45.468Z,99500
2018-04-30T21:39:14.445Z,99506
2018-04-30T21:41:43.436Z,99502
2018-04-30T21:44:11.536Z,99509
2018-04-30T21:46:39.624Z,99495
2018-04-30T21:49:14.525Z,99507
2018-04-30T21:51:45.608Z,99507
2018-04-30T21:54:13.676Z,99523
2018-04-30T21:56:45.583Z,99530
2018-04-30T21:59:14.369Z,99497
2018-04-30T22:01:43.060Z,99523
2018-04-30T22:04:11.876Z,99525
2018-04-30T22:06:39.937Z,99516
2018-04-30T22:09:13.226Z,99527
2018-04-30T22:11:41.562Z,99550
2018-04-30T22:14:09.647Z,99546
2018-04-30T22:16:37.733Z,99548
2018-04-30T22:19:06.426Z,99545
2018-04-30T22:21:34.887Z,99539
2018-04-30T22:24:04.524Z,99560
2018-04-30T22:26:36.336Z,99561
2018-04-30T22:29:07.102Z,99568
2018-04-30T22:31:35.853Z,99563
2018-04-30T22:34:04.904Z,99575
2018-04-30T22:36:33.570Z,99568
2018-04-30T22:39:01.656Z,99586
2018-04-30T22:41:31.657Z,99574
2018-04-30T22:43:59.745Z,99578
2018-04-30T22:46:27.850Z,99598
2018-04-30T22:48:55.918Z,99591
2018-04-30T22:51:24.337Z,99600
2018-04-30T22:53:55.074Z,99604
2018-04-30T22:56:23.323Z,99605
2018-04-30T22:58:52.098Z,99609
2018-04-30T23:01:20.208Z,99616
2018-04-30T23:03:49.012Z,99618
2018-04-30T23:06:17.075Z,99616
2018-04-30T23:08:46.463Z,99628
2018-04-30T23:11:15.470Z,99624
2018-04-30T23:13:43.560Z,99629
2018-04-30T23:16:11.660Z,99630
2018-04-30T23:18:39.732Z,99651
2018-04-30T23:21:07.985Z,99643
2018-04-30T23:23:36.769Z,99641
2018-04-30T23:26:05.556Z,99648
2018-04-30T23:28:33.884Z,99633
2018-04-30T23:31:03.448Z,99631
2018-04-30T23:33:32.227Z,99651
2018-04-30T23:36:01.009Z,99654
2018-04-30T23:38:29.075Z,99659
2018-04-30T23:40:57.165Z,99647
2018-04-30T23:43:25.243Z,99669
2018-04-30T23:45:54.926Z,99671
2018-04-30T23:48:23.021Z,99667
2018-04-30T23:50:51.245Z,99669
2018-04-30T23:53:20.147Z,99686
2018-04-30T23:55:49.093Z,99680
2018-04-30T23:58:18.160Z,99683
